Latest Weather Observations for Cooma Airport

IDN60901

Issued at 9:15 pm EDT Friday 24 October 2014 (issued every 10 minutes, with the page automatically refreshed every 10 minutes)

About weather observations | Map of Canberra area stations | Latest observations for Canberra area | Other Formats
Station Details ID: 070217 Name: COOMA AIRPORT AWS Lat: -36.29 Lon: 148.97 Height: 930.0 m
Data from the previous 72 hours. | See also: Recent months for locations in Aust Capital Territory
Date/Time
EDT
Tmp

°C
App
Tmp
°C
Dew
Point
°C
Rel
Hum
%
Delta-T

°C
Wind Press
QNH
hPa
Press
MSL
hPa
Rain
since
9 am
mm
Dir
 
Spd
km/h
Gust
km/h
Spd
kts
Gust
kts
24/09:00pm 14.8 15.4 11.8 82 1.7 N 0 0 0 0 1016.2 1015.1 0.0
24/08:30pm 15.7 16.2 11.7 77 2.3 CALM 0 0 0 0 1016.0 1014.9 0.0
24/08:00pm 17.4 17.4 12.3 72 2.9 SSW 4 6 2 3 1015.9 1014.8 0.0
24/07:30pm 18.9 19.1 12.9 68 3.5 NW 4 7 2 4 1015.5 1014.3 0.0
24/07:00pm 20.5 21.6 13.5 64 4.2 CALM 0 0 0 0 1015.2 1014.1 0.0
24/06:30pm 21.4 22.4 13.1 59 5.0 CALM 0 0 0 0 1015.2 1014.1 0.0
24/06:00pm 21.4 20.9 12.5 57 5.3 WSW 7 9 4 5 1015.2 1014.1 0.0
24/05:30pm 22.4 21.2 11.5 50 6.4 W 9 13 5 7 1015.1 1014.0 0.0
24/05:00pm 22.7 19.7 10.8 47 6.9 W 17 24 9 13 1015.1 1014.0 0.0
24/04:30pm 24.9 21.3 10.0 39 8.6 W 19 24 10 13 1015.0 1013.9 0.0
24/04:00pm 24.6 20.9 10.1 40 8.3 NNW 20 28 11 15 1014.8 1013.6 0.0
24/03:30pm 24.9 20.6 10.7 40 8.3 NW 24 35 13 19 1015.0 1013.9 0.0
24/03:00pm 25.0 21.3 10.1 39 8.6 NW 20 30 11 16 1015.1 1014.0 0.0
24/02:30pm 25.1 21.5 10.6 40 8.4 NW 20 32 11 17 1015.2 1014.1 0.0
24/02:00pm 24.1 19.1 9.7 40 8.2 NNW 26 37 14 20 1015.7 1014.5 0.0
24/01:30pm 24.1 19.4 10.7 43 7.8 NNW 26 35 14 19 1015.8 1014.7 0.0
24/01:00pm 23.4 18.7 9.4 41 7.9 NW 24 33 13 18 1016.2 1015.1 0.0
24/12:30pm 23.8 20.5 10.8 44 7.5 NNW 19 28 10 15 1016.5 1015.4 0.0
24/12:00pm 21.6 17.0 11.0 51 6.1 N 26 33 14 18 1016.8 1015.7 0.0
24/11:30am 22.7 17.8 11.4 49 6.6 NNW 28 39 15 21 1017.1 1016.0 0.0
24/11:00am 22.6 17.3 11.4 49 6.5 N 30 39 16 21 1017.6 1016.6 0.0
24/10:30am 20.5 15.8 12.0 58 5.0 NNE 28 39 15 21 1018.0 1016.9 0.0
24/10:00am 19.1 13.6 11.9 63 4.2 NNE 32 39 17 21 1018.4 1017.3 0.0
24/09:30am 18.1 12.2 11.0 63 4.0 NNE 33 43 18 23 1018.7 1017.7 0.0
24/09:00am 17.1 11.1 10.0 63 3.9 NE 32 39 17 21 1019.1 1018.0 6.0
24/08:30am 16.1 11.2 10.0 67 3.4 NE 26 33 14 18 1019.4 1018.3 6.0
24/08:00am 14.6 10.4 9.6 72 2.7 NE 22 28 12 15 1019.7 1018.7 6.0
24/07:30am 13.8 8.6 9.0 73 2.6 ENE 26 32 14 17 1019.5 1018.4 6.0
24/07:00am 11.0 6.6 8.8 86 1.1 NE 22 26 12 14 1019.3 1018.2 6.0
24/06:30am 9.8 5.4 8.9 94 0.5 NNE 22 24 12 13 1019.4 1018.3 6.0
24/06:00am 9.8 5.0 9.0 95 0.4 NNE 24 28 13 15 1019.3 1018.2 6.0
24/05:30am 9.5 5.7 8.9 96 0.3 NNE 19 22 10 12 1019.2 1018.1 6.0
24/05:00am 10.2 6.5 9.4 95 0.4 NE 19 20 10 11 1019.3 1018.2 5.8
24/04:30am 9.7 7.6 9.6 99 0.1 N 11 13 6 7 1019.2 1018.1 5.8
24/04:00am 9.7 6.8 9.6 99 0.1 NNE 15 17 8 9 1019.3 1018.2 5.8
24/03:30am 10.7 7.6 10.2 97 0.3 NE 17 20 9 11 1019.5 1018.4 5.8
24/03:00am 11.8 8.2 9.9 88 1.0 NE 19 24 10 13 1019.9 1018.9 5.8
24/02:30am 12.3 7.9 10.5 89 1.0 ENE 24 32 13 17 1019.9 1018.9 5.8
24/02:00am 11.4 7.8 10.5 94 0.5 NE 20 28 11 15 1020.4 1019.3 5.8
24/01:30am 11.0 8.3 10.5 97 0.3 NE 15 20 8 11 1021.1 1020.1 5.8
24/01:00am 9.9 9.5 9.8 99 0.1 NE 2 9 1 5 1021.5 1020.5 5.8
24/12:30am 9.8 7.9 9.2 96 0.3 NE 9 13 5 7 1021.7 1020.7 5.8
24/12:00am 10.3 8.3 10.0 98 0.2 N 11 13 6 7 1021.6 1020.6 5.8
 
Date/Time
EDT
Tmp

°C
App
Tmp
°C
Dew
Point
°C
Rel
Hum
%
Delta-T

°C
Wind Press
QNH
hPa
Press
MSL
hPa
Rain
since
9 am
mm
Dir
 
Spd
km/h
Gust
km/h
Spd
kts
Gust
kts
23/11:30pm 10.2 8.2 10.0 99 0.1 NE 11 13 6 7 1021.8 1020.8 5.8
23/11:00pm 10.7 8.4 10.4 98 0.2 NNE 13 15 7 8 1021.9 1020.9 5.8
23/10:30pm 11.3 8.3 10.8 97 0.3 NE 17 17 9 9 1021.9 1020.9 5.8
23/10:00pm 12.0 9.0 10.7 92 0.7 N 17 20 9 11 1022.0 1021.0 5.8
23/09:30pm 12.1 9.5 10.7 91 0.8 N 15 19 8 10 1021.9 1020.9 5.8
23/09:00pm 13.2 9.2 10.4 83 1.5 N 22 32 12 17 1021.7 1020.7 5.8
23/08:30pm 13.4 8.4 10.9 85 1.4 N 28 37 15 20 1021.0 1020.0 5.8
23/08:06pm 13.7 7.9 10.7 82 1.7 E 32 39 17 21 1021.5 1020.5 5.6
23/08:00pm 13.8 9.2 11.0 83 1.5 E 26 32 14 17 1022.2 1021.2 4.8
23/07:45pm 14.8 11.8 10.8 77 2.2 SE 17 26 9 14 1023.2 1022.2 3.2
23/07:36pm 13.7 8.2 12.6 93 0.6 WSW 33 46 18 25 1023.9 1022.9 2.0
23/07:30pm 13.8 10.6 11.8 88 1.1 E 20 26 11 14 1022.0 1021.0 1.8
23/07:12pm 14.0 11.5 12.2 89 1.0 NE 17 24 9 13 1021.7 1020.7 1.6
23/07:00pm 14.3 11.8 12.2 87 1.2 NNE 17 20 9 11 1021.8 1020.8 1.4
23/06:54pm 14.5 13.1 12.2 86 1.3 N 11 20 6 11 1021.7 1020.7 1.2
23/06:30pm 15.1 11.9 11.9 81 1.8 NE 20 30 11 16 1021.3 1020.2 0.0
23/06:00pm 16.0 10.9 10.7 71 2.9 NE 28 37 15 20 1020.6 1019.6 0.0
23/05:30pm 16.4 10.7 11.1 71 3.0 E 32 44 17 24 1019.8 1018.8 0.0
23/05:00pm 17.5 10.4 10.9 65 3.7 ENE 39 46 21 25 1019.7 1018.7 0.0
23/04:30pm 19.9 14.7 11.7 59 4.7 ENE 30 37 16 20 1020.2 1019.1 0.0
23/04:00pm 21.4 16.4 9.6 47 6.6 E 26 41 14 22 1019.2 1018.1 0.0
23/03:30pm 23.0 18.0 7.9 38 8.3 E 24 28 13 15 1018.7 1017.7 0.0
23/03:00pm 25.2 23.2 6.4 30 10.2 NNW 6 11 3 6 1018.6 1017.6 0.0
23/02:30pm 24.9 22.8 8.4 35 9.2 NE 9 15 5 8 1018.8 1017.8 0.0
23/02:00pm 24.5 21.4 7.2 33 9.5 NE 13 20 7 11 1019.2 1018.1 0.0
23/01:30pm 24.3 22.0 7.4 34 9.3 ENE 9 20 5 11 1019.8 1018.8 0.0
23/01:00pm 23.9 21.4 8.3 37 8.7 NNE 11 17 6 9 1020.2 1019.1 0.0
23/12:30pm 23.5 20.4 8.8 39 8.2 NE 15 20 8 11 1020.4 1019.3 0.0
23/12:00pm 23.0 20.9 11.1 47 6.9 ENE 13 20 7 11 1020.7 1019.7 0.0
23/11:30am 22.7 21.5 11.7 49 6.4 NE 9 17 5 9 1021.1 1020.1 0.0
23/11:00am 21.8 20.0 9.3 45 7.0 NE 9 13 5 7 1021.5 1020.5 0.0
23/10:30am 21.4 22.0 12.0 55 5.5 CALM 0 0 0 0 1021.7 1020.7 0.0
23/10:00am 19.9 19.5 12.4 62 4.4 SSE 6 7 3 4 1021.9 1020.9 0.0
23/09:30am 18.4 17.9 12.2 67 3.6 NE 6 9 3 5 1021.9 1020.9 0.0
23/09:00am 16.0 13.7 10.5 70 3.0 NE 13 15 7 8 1021.7 1020.7 0.0
23/08:30am 14.4 12.3 9.8 74 2.5 NE 11 13 6 7 1021.6 1020.6 0.0
23/08:00am 14.0 12.9 10.8 81 1.8 NNE 7 9 4 5 1021.8 1020.8 0.0
23/07:30am 12.2 11.6 10.4 89 1.0 N 4 7 2 4 1021.7 1020.7 0.0
23/07:00am 8.9 8.2 8.6 98 0.2 SSE 2 7 1 4 1021.7 1020.7 0.0
23/06:30am 7.6 6.3 5.9 89 0.8 N 2 7 1 4 1021.4 1020.3 0.0
23/06:00am 8.5 7.8 7.0 90 0.7 CALM 0 0 0 0 1021.0 1020.0 0.0
23/05:30am 8.6 6.2 7.1 90 0.7 NNE 9 11 5 6 1020.7 1019.7 0.0
23/05:00am 9.6 8.7 7.9 89 0.9 S 2 11 1 6 1020.6 1019.6 0.0
23/04:30am 11.3 9.7 8.0 80 1.7 N 6 7 3 4 1020.3 1019.2 0.0
23/04:00am 10.2 8.5 8.3 88 1.0 N 7 7 4 4 1019.9 1018.9 0.0
23/03:30am 10.7 10.3 8.3 85 1.2 CALM 0 0 0 0 1020.2 1019.1 0.0
23/03:00am 10.1 8.4 8.5 90 0.8 NNE 7 7 4 4 1020.2 1019.1 0.0
23/02:30am 9.7 7.9 8.0 89 0.9 N 7 9 4 5 1020.4 1019.3 0.0
23/02:00am 9.8 8.1 8.2 90 0.8 N 7 9 4 5 1020.7 1019.7 0.0
23/01:30am 9.0 8.1 7.8 92 0.6 NE 2 7 1 4 1021.0 1020.0 0.0
23/01:00am 9.1 8.6 7.7 91 0.7 CALM 0 0 0 0 1021.3 1020.2 0.0
23/12:30am 9.3 8.8 7.9 91 0.7 CALM 0 0 0 0 1021.5 1020.5 0.0
23/12:00am 8.5 7.8 7.1 91 0.7 CALM 0 0 0 0 1021.7 1020.7 0.0
 
Date/Time
EDT
Tmp

°C
App
Tmp
°C
Dew
Point
°C
Rel
Hum
%
Delta-T

°C
Wind Press
QNH
hPa
Press
MSL
hPa
Rain
since
9 am
mm
Dir
 
Spd
km/h
Gust
km/h
Spd
kts
Gust
kts
22/11:30pm 10.7 9.1 8.1 84 1.3 NNW 6 7 3 4 1021.7 1020.7 0.0
22/11:00pm 9.5 8.1 7.4 87 1.0 NE 4 13 2 7 1021.7 1020.7 0.0
22/10:30pm 10.1 9.5 7.2 82 1.5 CALM 0 0 0 0 1021.5 1020.5 0.0
22/10:00pm 11.1 9.5 7.8 80 1.7 E 6 9 3 5 1021.7 1020.7 0.0
22/09:30pm 11.7 9.7 8.7 82 1.6 S 9 15 5 8 1021.7 1020.7 0.0
22/09:00pm 10.8 9.6 8.2 84 1.3 SSW 4 7 2 4 1021.4 1020.3 0.0
22/08:30pm 11.3 10.9 8.3 82 1.6 CALM 0 7 0 4 1020.9 1019.9 0.0
22/08:00pm 14.9 14.8 9.5 70 2.9 CALM 0 0 0 0 1020.6 1019.6 0.0
22/07:30pm 16.6 16.6 9.8 64 3.7 CALM 0 6 0 3 1020.5 1019.5 0.0
22/07:00pm 20.3 19.3 11.0 55 5.3 SW 7 7 4 4 1020.5 1019.5 0.0
22/06:30pm 20.6 18.7 11.8 57 5.1 SSW 13 15 7 8 1020.3 1019.2 0.0
22/06:00pm 22.3 19.9 10.1 46 6.9 SW 13 15 7 8 1020.3 1019.2 0.0
22/05:30pm 22.4 20.2 12.1 52 6.1 S 15 20 8 11 1020.3 1019.2 0.0
22/05:00pm 22.8 20.4 9.9 44 7.3 S 13 17 7 9 1020.3 1019.2 0.0
22/04:30pm 22.9 20.9 8.6 40 8.0 S 9 13 5 7 1020.4 1019.3 0.0
22/04:00pm 22.9 20.7 10.7 46 7.0 S 13 20 7 11 1020.6 1019.6 0.0
22/03:30pm 22.8 20.2 9.2 42 7.6 S 13 19 7 10 1020.7 1019.7 0.0
22/03:00pm 22.6 21.2 9.7 44 7.3 S 7 13 4 7 1021.0 1020.0 0.0
22/02:30pm 22.4 20.5 10.5 47 6.8 SSW 11 17 6 9 1021.4 1020.3 0.0
22/02:00pm 22.3 21.2 9.8 45 7.1 WSW 6 13 3 7 1021.7 1020.7 0.0
22/01:30pm 21.5 20.4 10.6 50 6.2 SSW 7 11 4 6 1022.1 1021.1 0.0
22/01:00pm 21.1 19.4 9.7 48 6.4 ENE 9 13 5 7 1022.5 1021.5 0.0
22/12:30pm 20.1 18.0 8.1 46 6.5 E 9 13 5 7 1022.9 1021.9 0.0
22/12:00pm 19.3 17.9 12.1 63 4.2 ENE 11 15 6 8 1023.3 1022.4 0.0
22/11:30am 17.4 15.0 10.1 62 4.1 NE 13 15 7 8 1023.9 1022.9 0.0
22/11:00am 16.0 13.0 9.4 65 3.6 NE 15 19 8 10 1024.4 1023.5 0.0
22/10:30am 14.1 10.5 8.5 69 3.0 NE 17 20 9 11 1024.9 1023.9 0.0
22/10:00am 12.8 8.9 8.7 76 2.1 NE 19 22 10 12 1025.1 1024.1 0.0
22/09:30am 10.9 6.8 7.8 81 1.6 NE 19 24 10 13 1025.3 1024.4 0.0
22/09:22am 10.7 6.8 8.5 86 1.1 NE 19 24 10 13 1025.3 1024.4 0.0
22/09:00am 9.4 5.8 8.3 93 0.6 NE 17 22 9 12 1025.4 1024.5 0.0
22/08:30am 7.7 3.9 7.6 99 0.0 N 17 20 9 11 1025.4 1024.5 0.0
22/08:00am 7.3 3.0 7.2 99 0.0 NNE 19 22 10 12 1025.4 1024.5 0.0
22/07:47am 7.1 2.6 7.0 99 0.0 NNE 20 24 11 13 1025.4 1024.5 0.0
22/07:30am 7.0 2.7 6.9 99 0.0 NNE 19 24 10 13 1025.2 1024.3 0.0
22/07:00am 7.2 2.9 7.1 99 0.0 NNE 19 24 10 13 1025.3 1024.4 0.0
22/06:30am 7.0 2.5 6.9 99 0.0 NNE 20 24 11 13 1025.2 1024.3 0.0
22/06:00am 7.2 2.7 7.1 99 0.0 NNE 20 26 11 14 1025.3 1024.4 0.0
22/05:30am 7.6 3.2 7.5 99 0.0 NNE 20 24 11 13 1025.2 1024.3 0.0
22/05:00am 7.7 3.3 7.6 99 0.0 NE 20 26 11 14 1025.2 1024.3 0.0
22/04:30am 7.8 3.7 7.7 99 0.0 NE 19 20 10 11 1025.6 1024.7 0.0
22/04:00am 7.6 3.2 7.5 99 0.0 NE 20 24 11 13 1025.6 1024.7 0.0
22/03:30am 7.4 3.0 7.3 99 0.0 NE 20 24 11 13 1026.0 1025.0 0.0
22/03:00am 6.0 1.3 5.9 99 0.0 NE 20 20 11 11 1026.3 1025.4 0.0
22/02:30am 5.4 0.7 5.3 99 0.0 NE 19 20 10 11 1026.8 1025.9 0.0
22/02:11am 5.4 1.1 5.3 99 0.0 NE 17 19 9 10 1027.2 1026.3 0.0
22/02:00am 5.3 0.6 5.2 99 0.0 NNE 19 20 10 11 1027.3 1026.4 0.0
22/01:30am 5.1 0.4 5.0 99 0.0 NNE 19 20 10 11 1027.7 1026.8 0.0
22/01:00am 4.7 0.3 4.6 99 0.0 NNE 17 19 9 10 1027.9 1027.0 0.0
22/12:30am 5.1 0.7 5.0 99 0.0 NNE 17 19 9 10 1028.5 1027.6 0.0
22/12:00am 5.6 0.8 5.5 99 0.0 NNE 20 20 11 11 1028.7 1027.8 0.0
 
Date/Time
EDT
Tmp

°C
App
Tmp
°C
Dew
Point
°C
Rel
Hum
%
Delta-T

°C
Wind Press
QNH
hPa
Press
MSL
hPa
Rain
since
9 am
mm
Dir
 
Spd
km/h
Gust
km/h
Spd
kts
Gust
kts
21/11:30pm 5.9 1.3 5.8 99 0.0 NE 19 20 10 11 1028.8 1027.9 0.0
21/11:00pm 6.1 1.6 6.0 99 0.0 NNE 19 20 10 11 1029.1 1028.3 0.0
21/10:30pm 6.4 1.9 6.3 99 0.0 NE 19 20 10 11 1029.4 1028.5 0.0
21/10:00pm 6.7 2.7 6.6 99 0.0 NNE 17 20 9 11 1029.5 1028.6 0.0
21/09:30pm 7.1 2.6 7.0 99 0.0 NNE 20 26 11 14 1029.1 1028.3 0.0

Latest Capital City Observations: Canberra | Sydney | Melbourne | Brisbane | Adelaide | Perth | Hobart | Darwin

Other Formats:

Comma delimited format used in spreadsheet applications
http://www.bom.gov.au/fwo/IDN60903/IDN60903.94921.axf

JavaScript Object Notation format (JSON) in row-major order
http://www.bom.gov.au/fwo/IDN60903/IDN60903.94921.json